sensor_id;sensor_type;location;lat;lon;timestamp;P1;durP1;ratioP1;P2;durP2;ratioP2
59649;SDS011;46162;57.568;25.814;2023-02-18T00:01:44;2.97;;;0.80;;
59649;SDS011;46162;57.568;25.814;2023-02-18T00:04:12;2.65;;;0.75;;
59649;SDS011;46162;57.568;25.814;2023-02-18T00:06:41;3.45;;;0.90;;
59649;SDS011;46162;57.568;25.814;2023-02-18T00:09:10;4.53;;;0.98;;
59649;SDS011;46162;57.568;25.814;2023-02-18T00:11:40;2.40;;;0.52;;
59649;SDS011;46162;57.568;25.814;2023-02-18T00:14:10;3.08;;;0.63;;
59649;SDS011;46162;57.568;25.814;2023-02-18T00:16:40;2.88;;;0.47;;
59649;SDS011;46162;57.568;25.814;2023-02-18T00:19:11;2.53;;;0.70;;
59649;SDS011;46162;57.568;25.814;2023-02-18T00:21:41;2.63;;;0.40;;
59649;SDS011;46162;57.568;25.814;2023-02-18T00:24:10;2.83;;;0.80;;
59649;SDS011;46162;57.568;25.814;2023-02-18T00:26:43;2.35;;;0.40;;
59649;SDS011;46162;57.568;25.814;2023-02-18T00:29:12;2.63;;;0.50;;
59649;SDS011;46162;57.568;25.814;2023-02-18T00:31:40;2.75;;;0.75;;
59649;SDS011;46162;57.568;25.814;2023-02-18T00:34:10;2.53;;;0.57;;
59649;SDS011;46162;57.568;25.814;2023-02-18T00:36:39;2.75;;;0.30;;
59649;SDS011;46162;57.568;25.814;2023-02-18T00:39:09;2.60;;;0.40;;
59649;SDS011;46162;57.568;25.814;2023-02-18T00:41:39;2.22;;;0.40;;
59649;SDS011;46162;57.568;25.814;2023-02-18T00:44:09;2.10;;;0.30;;
59649;SDS011;46162;57.568;25.814;2023-02-18T00:46:38;2.10;;;0.38;;
59649;SDS011;46162;57.568;25.814;2023-02-18T00:49:07;2.55;;;0.38;;
59649;SDS011;46162;57.568;25.814;2023-02-18T00:51:36;1.63;;;0.20;;
59649;SDS011;46162;57.568;25.814;2023-02-18T00:54:06;1.42;;;0.22;;
59649;SDS011;46162;57.568;25.814;2023-02-18T00:56:34;2.20;;;0.30;;
59649;SDS011;46162;57.568;25.814;2023-02-18T00:59:03;2.22;;;0.20;;
59649;SDS011;46162;57.568;25.814;2023-02-18T01:01:34;1.90;;;0.30;;
59649;SDS011;46162;57.568;25.814;2023-02-18T01:04:02;1.35;;;0.10;;
59649;SDS011;46162;57.568;25.814;2023-02-18T01:06:31;1.10;;;0.10;;
59649;SDS011;46162;57.568;25.814;2023-02-18T01:09:01;1.38;;;0.20;;
59649;SDS011;46162;57.568;25.814;2023-02-18T01:11:30;1.30;;;0.10;;
59649;SDS011;46162;57.568;25.814;2023-02-18T01:13:58;1.23;;;0.20;;
59649;SDS011;46162;57.568;25.814;2023-02-18T01:16:28;1.05;;;0.10;;
59649;SDS011;46162;57.568;25.814;2023-02-18T01:18:58;1.55;;;0.10;;
59649;SDS011;46162;57.568;25.814;2023-02-18T01:21:27;1.25;;;0.10;;
59649;SDS011;46162;57.568;25.814;2023-02-18T01:23:55;2.00;;;0.20;;
59649;SDS011;46162;57.568;25.814;2023-02-18T01:26:25;1.40;;;0.15;;
59649;SDS011;46162;57.568;25.814;2023-02-18T01:28:53;1.50;;;0.10;;
59649;SDS011;46162;57.568;25.814;2023-02-18T01:31:22;1.23;;;0.10;;
59649;SDS011;46162;57.568;25.814;2023-02-18T01:33:50;0.90;;;0.10;;
59649;SDS011;46162;57.568;25.814;2023-02-18T01:36:20;0.90;;;0.00;;
59649;SDS011;46162;57.568;25.814;2023-02-18T01:38:49;1.30;;;0.10;;
59649;SDS011;46162;57.568;25.814;2023-02-18T01:41:19;1.67;;;0.10;;
59649;SDS011;46162;57.568;25.814;2023-02-18T01:43:47;1.38;;;0.10;;
59649;SDS011;46162;57.568;25.814;2023-02-18T01:46:17;1.15;;;0.10;;
59649;SDS011;46162;57.568;25.814;2023-02-18T01:48:48;1.33;;;0.10;;
59649;SDS011;46162;57.568;25.814;2023-02-18T01:51:24;0.93;;;0.10;;
59649;SDS011;46162;57.568;25.814;2023-02-18T01:53:56;0.70;;;0.10;;
59649;SDS011;46162;57.568;25.814;2023-02-18T01:56:30;0.88;;;0.10;;
59649;SDS011;46162;57.568;25.814;2023-02-18T01:59:02;0.93;;;0.03;;
59649;SDS011;46162;57.568;25.814;2023-02-18T02:01:33;0.70;;;0.10;;
59649;SDS011;46162;57.568;25.814;2023-02-18T02:04:03;1.42;;;0.10;;
59649;SDS011;46162;57.568;25.814;2023-02-18T02:06:34;0.73;;;0.00;;
59649;SDS011;46162;57.568;25.814;2023-02-18T02:09:03;0.70;;;0.00;;
59649;SDS011;46162;57.568;25.814;2023-02-18T02:14:37;0.43;;;0.00;;
59649;SDS011;46162;57.568;25.814;2023-02-18T02:17:16;0.40;;;0.00;;
59649;SDS011;46162;57.568;25.814;2023-02-18T02:20:05;0.90;;;0.00;;
59649;SDS011;46162;57.568;25.814;2023-02-18T02:23:04;0.68;;;0.00;;
59649;SDS011;46162;57.568;25.814;2023-02-18T02:26:07;0.93;;;0.00;;
59649;SDS011;46162;57.568;25.814;2023-02-18T02:29:02;0.73;;;0.00;;
59649;SDS011;46162;57.568;25.814;2023-02-18T02:31:57;0.95;;;0.00;;
59649;SDS011;46162;57.568;25.814;2023-02-18T02:34:35;1.38;;;0.03;;
59649;SDS011;46162;57.568;25.814;2023-02-18T02:37:11;0.55;;;0.00;;
59649;SDS011;46162;57.568;25.814;2023-02-18T02:39:46;1.00;;;0.08;;
59649;SDS011;46162;57.568;25.814;2023-02-18T02:42:24;1.17;;;0.00;;
59649;SDS011;46162;57.568;25.814;2023-02-18T02:44:59;1.70;;;0.00;;
59649;SDS011;46162;57.568;25.814;2023-02-18T02:47:37;0.95;;;0.00;;
59649;SDS011;46162;57.568;25.814;2023-02-18T02:50:15;1.13;;;0.03;;
59649;SDS011;46162;57.568;25.814;2023-02-18T02:52:49;0.88;;;0.00;;
59649;SDS011;46162;57.568;25.814;2023-02-18T02:55:21;0.40;;;0.00;;
59649;SDS011;46162;57.568;25.814;2023-02-18T02:57:53;0.90;;;0.10;;
59649;SDS011;46162;57.568;25.814;2023-02-18T03:00:29;1.00;;;0.10;;
59649;SDS011;46162;57.568;25.814;2023-02-18T03:03:16;1.42;;;0.10;;
59649;SDS011;46162;57.568;25.814;2023-02-18T03:05:57;0.93;;;0.10;;
59649;SDS011;46162;57.568;25.814;2023-02-18T03:08:40;1.52;;;0.08;;
59649;SDS011;46162;57.568;25.814;2023-02-18T03:11:18;2.45;;;0.10;;
59649;SDS011;46162;57.568;25.814;2023-02-18T03:13:53;1.00;;;0.00;;
59649;SDS011;46162;57.568;25.814;2023-02-18T03:16:35;0.98;;;0.08;;
59649;SDS011;46162;57.568;25.814;2023-02-18T03:19:16;1.23;;;0.10;;
59649;SDS011;46162;57.568;25.814;2023-02-18T03:21:56;2.97;;;0.10;;
59649;SDS011;46162;57.568;25.814;2023-02-18T03:24:31;1.70;;;0.20;;
59649;SDS011;46162;57.568;25.814;2023-02-18T03:27:03;1.80;;;0.10;;
59649;SDS011;46162;57.568;25.814;2023-02-18T03:29:36;1.67;;;0.20;;
59649;SDS011;46162;57.568;25.814;2023-02-18T03:32:06;2.15;;;0.20;;
59649;SDS011;46162;57.568;25.814;2023-02-18T03:34:39;1.27;;;0.10;;
59649;SDS011;46162;57.568;25.814;2023-02-18T03:37:13;4.05;;;0.10;;
59649;SDS011;46162;57.568;25.814;2023-02-18T03:39:43;2.13;;;0.30;;
59649;SDS011;46162;57.568;25.814;2023-02-18T03:42:15;4.18;;;0.20;;
59649;SDS011;46162;57.568;25.814;2023-02-18T03:44:44;4.25;;;0.20;;
59649;SDS011;46162;57.568;25.814;2023-02-18T03:47:13;4.40;;;0.20;;
59649;SDS011;46162;57.568;25.814;2023-02-18T03:49:41;2.28;;;0.20;;
59649;SDS011;46162;57.568;25.814;2023-02-18T03:52:10;2.40;;;0.20;;
59649;SDS011;46162;57.568;25.814;2023-02-18T03:54:40;4.53;;;0.20;;
59649;SDS011;46162;57.568;25.814;2023-02-18T03:57:09;2.25;;;0.15;;
59649;SDS011;46162;57.568;25.814;2023-02-18T03:59:37;3.83;;;0.22;;
59649;SDS011;46162;57.568;25.814;2023-02-18T04:02:06;2.85;;;0.25;;
59649;SDS011;46162;57.568;25.814;2023-02-18T04:04:38;1.98;;;0.20;;
59649;SDS011;46162;57.568;25.814;2023-02-18T04:07:09;2.47;;;0.20;;
59649;SDS011;46162;57.568;25.814;2023-02-18T04:09:38;2.75;;;0.20;;
59649;SDS011;46162;57.568;25.814;2023-02-18T04:12:09;2.38;;;0.20;;
59649;SDS011;46162;57.568;25.814;2023-02-18T04:14:38;3.75;;;0.20;;
59649;SDS011;46162;57.568;25.814;2023-02-18T04:17:06;1.80;;;0.20;;
59649;SDS011;46162;57.568;25.814;2023-02-18T04:19:35;2.80;;;0.30;;
59649;SDS011;46162;57.568;25.814;2023-02-18T04:22:04;3.17;;;0.20;;
59649;SDS011;46162;57.568;25.814;2023-02-18T04:24:34;1.55;;;0.20;;
59649;SDS011;46162;57.568;25.814;2023-02-18T04:27:07;2.25;;;0.20;;
59649;SDS011;46162;57.568;25.814;2023-02-18T04:29:36;3.80;;;0.30;;
59649;SDS011;46162;57.568;25.814;2023-02-18T04:32:05;2.22;;;0.20;;
59649;SDS011;46162;57.568;25.814;2023-02-18T04:34:34;2.55;;;0.30;;
59649;SDS011;46162;57.568;25.814;2023-02-18T04:37:02;2.78;;;0.20;;
59649;SDS011;46162;57.568;25.814;2023-02-18T04:39:31;1.85;;;0.30;;
59649;SDS011;46162;57.568;25.814;2023-02-18T04:42:00;2.88;;;0.30;;
59649;SDS011;46162;57.568;25.814;2023-02-18T04:44:36;1.23;;;0.20;;
59649;SDS011;46162;57.568;25.814;2023-02-18T04:47:05;2.03;;;0.20;;
59649;SDS011;46162;57.568;25.814;2023-02-18T04:49:34;2.65;;;0.30;;
59649;SDS011;46162;57.568;25.814;2023-02-18T04:52:03;4.15;;;0.55;;
59649;SDS011;46162;57.568;25.814;2023-02-18T04:54:32;3.95;;;0.30;;
59649;SDS011;46162;57.568;25.814;2023-02-18T04:57:01;1.75;;;0.30;;
59649;SDS011;46162;57.568;25.814;2023-02-18T04:59:30;1.50;;;0.20;;
59649;SDS011;46162;57.568;25.814;2023-02-18T05:02:00;2.75;;;0.20;;
59649;SDS011;46162;57.568;25.814;2023-02-18T05:04:29;2.47;;;0.23;;
59649;SDS011;46162;57.568;25.814;2023-02-18T05:06:58;2.38;;;0.30;;
59649;SDS011;46162;57.568;25.814;2023-02-18T05:09:27;2.85;;;0.28;;
59649;SDS011;46162;57.568;25.814;2023-02-18T05:11:55;6.53;;;0.40;;
59649;SDS011;46162;57.568;25.814;2023-02-18T05:14:24;4.68;;;0.30;;
59649;SDS011;46162;57.568;25.814;2023-02-18T05:16:53;2.25;;;0.35;;
59649;SDS011;46162;57.568;25.814;2023-02-18T05:19:24;2.40;;;0.32;;
59649;SDS011;46162;57.568;25.814;2023-02-18T05:21:53;3.22;;;0.40;;
59649;SDS011;46162;57.568;25.814;2023-02-18T05:24:21;3.03;;;0.30;;
59649;SDS011;46162;57.568;25.814;2023-02-18T05:26:51;2.30;;;0.20;;
59649;SDS011;46162;57.568;25.814;2023-02-18T05:29:20;2.40;;;0.30;;
59649;SDS011;46162;57.568;25.814;2023-02-18T05:31:48;2.40;;;0.30;;
59649;SDS011;46162;57.568;25.814;2023-02-18T05:34:20;1.63;;;0.20;;
59649;SDS011;46162;57.568;25.814;2023-02-18T05:36:51;2.25;;;0.60;;
59649;SDS011;46162;57.568;25.814;2023-02-18T05:39:19;4.05;;;0.40;;
59649;SDS011;46162;57.568;25.814;2023-02-18T05:41:48;2.30;;;0.20;;
59649;SDS011;46162;57.568;25.814;2023-02-18T05:44:17;2.22;;;0.30;;
59649;SDS011;46162;57.568;25.814;2023-02-18T05:46:59;3.40;;;0.30;;
59649;SDS011;46162;57.568;25.814;2023-02-18T05:49:29;1.55;;;0.20;;
59649;SDS011;46162;57.568;25.814;2023-02-18T05:52:03;2.13;;;0.22;;
59649;SDS011;46162;57.568;25.814;2023-02-18T05:54:35;3.67;;;0.40;;
59649;SDS011;46162;57.568;25.814;2023-02-18T05:57:04;1.88;;;0.30;;
59649;SDS011;46162;57.568;25.814;2023-02-18T05:59:33;1.55;;;0.22;;
59649;SDS011;46162;57.568;25.814;2023-02-18T06:02:04;3.90;;;0.38;;
59649;SDS011;46162;57.568;25.814;2023-02-18T06:04:32;6.35;;;0.40;;
59649;SDS011;46162;57.568;25.814;2023-02-18T06:07:03;4.80;;;0.30;;
59649;SDS011;46162;57.568;25.814;2023-02-18T06:09:32;3.37;;;0.30;;
59649;SDS011;46162;57.568;25.814;2023-02-18T06:12:00;2.25;;;0.25;;
59649;SDS011;46162;57.568;25.814;2023-02-18T06:14:29;2.17;;;0.28;;
59649;SDS011;46162;57.568;25.814;2023-02-18T06:16:58;3.45;;;0.30;;
59649;SDS011;46162;57.568;25.814;2023-02-18T06:19:26;5.18;;;0.60;;
59649;SDS011;46162;57.568;25.814;2023-02-18T06:21:55;2.55;;;0.35;;
59649;SDS011;46162;57.568;25.814;2023-02-18T06:24:25;2.75;;;0.40;;
59649;SDS011;46162;57.568;25.814;2023-02-18T06:26:54;4.13;;;0.60;;
59649;SDS011;46162;57.568;25.814;2023-02-18T06:29:23;5.05;;;0.70;;
59649;SDS011;46162;57.568;25.814;2023-02-18T06:31:52;3.03;;;0.40;;
59649;SDS011;46162;57.568;25.814;2023-02-18T06:34:21;2.70;;;0.60;;
59649;SDS011;46162;57.568;25.814;2023-02-18T06:36:50;4.32;;;0.40;;
59649;SDS011;46162;57.568;25.814;2023-02-18T06:39:18;2.63;;;0.38;;
59649;SDS011;46162;57.568;25.814;2023-02-18T06:41:48;2.83;;;0.38;;
59649;SDS011;46162;57.568;25.814;2023-02-18T06:44:17;2.58;;;0.32;;
59649;SDS011;46162;57.568;25.814;2023-02-18T06:46:46;2.72;;;0.30;;
59649;SDS011;46162;57.568;25.814;2023-02-18T06:49:15;2.65;;;0.32;;
59649;SDS011;46162;57.568;25.814;2023-02-18T06:51:44;2.22;;;0.38;;
59649;SDS011;46162;57.568;25.814;2023-02-18T06:54:16;2.13;;;0.30;;
59649;SDS011;46162;57.568;25.814;2023-02-18T06:56:48;3.60;;;0.20;;
59649;SDS011;46162;57.568;25.814;2023-02-18T06:59:17;3.28;;;0.50;;
59649;SDS011;46162;57.568;25.814;2023-02-18T07:01:46;1.55;;;0.20;;
59649;SDS011;46162;57.568;25.814;2023-02-18T07:04:15;3.78;;;0.20;;
59649;SDS011;46162;57.568;25.814;2023-02-18T07:06:43;1.33;;;0.15;;
59649;SDS011;46162;57.568;25.814;2023-02-18T07:09:12;1.52;;;0.22;;
59649;SDS011;46162;57.568;25.814;2023-02-18T07:11:40;3.13;;;0.32;;
59649;SDS011;46162;57.568;25.814;2023-02-18T07:14:10;3.58;;;0.30;;
59649;SDS011;46162;57.568;25.814;2023-02-18T07:16:39;2.30;;;0.40;;
59649;SDS011;46162;57.568;25.814;2023-02-18T07:19:07;2.30;;;0.22;;
59649;SDS011;46162;57.568;25.814;2023-02-18T07:21:36;4.28;;;0.22;;
59649;SDS011;46162;57.568;25.814;2023-02-18T07:24:05;2.40;;;0.30;;
59649;SDS011;46162;57.568;25.814;2023-02-18T07:26:34;2.15;;;0.20;;
59649;SDS011;46162;57.568;25.814;2023-02-18T07:29:02;1.75;;;0.25;;
59649;SDS011;46162;57.568;25.814;2023-02-18T07:31:32;3.10;;;0.35;;
59649;SDS011;46162;57.568;25.814;2023-02-18T07:34:01;3.33;;;0.20;;
59649;SDS011;46162;57.568;25.814;2023-02-18T07:36:29;1.55;;;0.20;;
59649;SDS011;46162;57.568;25.814;2023-02-18T07:38:58;2.38;;;0.20;;
59649;SDS011;46162;57.568;25.814;2023-02-18T07:41:26;1.80;;;0.13;;
59649;SDS011;46162;57.568;25.814;2023-02-18T07:43:55;3.38;;;0.20;;
59649;SDS011;46162;57.568;25.814;2023-02-18T07:46:24;2.05;;;0.15;;
59649;SDS011;46162;57.568;25.814;2023-02-18T07:48:53;2.75;;;0.30;;
59649;SDS011;46162;57.568;25.814;2023-02-18T07:51:23;1.70;;;0.30;;
59649;SDS011;46162;57.568;25.814;2023-02-18T07:53:52;2.38;;;0.10;;
59649;SDS011;46162;57.568;25.814;2023-02-18T07:56:20;1.90;;;0.20;;
59649;SDS011;46162;57.568;25.814;2023-02-18T07:58:49;1.73;;;0.20;;
59649;SDS011;46162;57.568;25.814;2023-02-18T08:01:18;2.03;;;0.20;;
59649;SDS011;46162;57.568;25.814;2023-02-18T08:03:46;3.35;;;0.20;;
59649;SDS011;46162;57.568;25.814;2023-02-18T08:06:20;3.78;;;0.40;;
59649;SDS011;46162;57.568;25.814;2023-02-18T08:08:53;1.75;;;0.30;;
59649;SDS011;46162;57.568;25.814;2023-02-18T08:11:25;1.92;;;0.20;;
59649;SDS011;46162;57.568;25.814;2023-02-18T08:14:01;1.30;;;0.25;;
59649;SDS011;46162;57.568;25.814;2023-02-18T08:16:32;1.30;;;0.10;;
59649;SDS011;46162;57.568;25.814;2023-02-18T08:19:02;1.90;;;0.20;;
59649;SDS011;46162;57.568;25.814;2023-02-18T08:21:32;1.10;;;0.20;;
59649;SDS011;46162;57.568;25.814;2023-02-18T08:24:01;1.60;;;0.20;;
59649;SDS011;46162;57.568;25.814;2023-02-18T08:26:30;1.55;;;0.35;;
59649;SDS011;46162;57.568;25.814;2023-02-18T08:28:58;1.95;;;0.20;;
59649;SDS011;46162;57.568;25.814;2023-02-18T08:31:27;0.98;;;0.10;;
59649;SDS011;46162;57.568;25.814;2023-02-18T08:33:57;3.03;;;0.15;;
59649;SDS011;46162;57.568;25.814;2023-02-18T08:36:27;0.90;;;0.20;;
59649;SDS011;46162;57.568;25.814;2023-02-18T08:38:57;1.40;;;0.20;;
59649;SDS011;46162;57.568;25.814;2023-02-18T08:41:27;1.25;;;0.10;;
59649;SDS011;46162;57.568;25.814;2023-02-18T08:43:55;1.45;;;0.20;;
59649;SDS011;46162;57.568;25.814;2023-02-18T08:46:24;1.48;;;0.10;;
59649;SDS011;46162;57.568;25.814;2023-02-18T08:49:02;2.08;;;0.10;;
59649;SDS011;46162;57.568;25.814;2023-02-18T08:51:31;2.17;;;0.10;;
59649;SDS011;46162;57.568;25.814;2023-02-18T08:54:02;1.25;;;0.10;;
59649;SDS011;46162;57.568;25.814;2023-02-18T08:56:31;1.77;;;0.10;;
59649;SDS011;46162;57.568;25.814;2023-02-18T08:58:59;1.50;;;0.10;;
59649;SDS011;46162;57.568;25.814;2023-02-18T09:01:28;1.15;;;0.10;;
59649;SDS011;46162;57.568;25.814;2023-02-18T09:03:57;2.25;;;0.10;;
59649;SDS011;46162;57.568;25.814;2023-02-18T09:06:25;1.42;;;0.10;;
59649;SDS011;46162;57.568;25.814;2023-02-18T09:08:54;0.60;;;0.10;;
59649;SDS011;46162;57.568;25.814;2023-02-18T09:11:24;1.60;;;0.10;;
59649;SDS011;46162;57.568;25.814;2023-02-18T09:13:52;1.33;;;0.10;;
59649;SDS011;46162;57.568;25.814;2023-02-18T09:16:21;1.50;;;0.15;;
59649;SDS011;46162;57.568;25.814;2023-02-18T09:18:51;1.20;;;0.10;;
59649;SDS011;46162;57.568;25.814;2023-02-18T09:21:20;0.50;;;0.10;;
59649;SDS011;46162;57.568;25.814;2023-02-18T09:23:50;0.85;;;0.10;;
59649;SDS011;46162;57.568;25.814;2023-02-18T09:26:19;0.60;;;0.10;;
59649;SDS011;46162;57.568;25.814;2023-02-18T09:28:51;0.90;;;0.10;;
59649;SDS011;46162;57.568;25.814;2023-02-18T09:31:22;1.73;;;0.10;;
59649;SDS011;46162;57.568;25.814;2023-02-18T09:33:52;1.10;;;0.20;;
59649;SDS011;46162;57.568;25.814;2023-02-18T09:36:25;0.43;;;0.00;;
59649;SDS011;46162;57.568;25.814;2023-02-18T09:38:54;1.25;;;0.45;;
59649;SDS011;46162;57.568;25.814;2023-02-18T09:41:25;0.80;;;0.10;;
59649;SDS011;46162;57.568;25.814;2023-02-18T09:44:03;1.13;;;0.10;;
59649;SDS011;46162;57.568;25.814;2023-02-18T09:46:38;0.93;;;0.10;;
59649;SDS011;46162;57.568;25.814;2023-02-18T09:49:15;0.82;;;0.10;;
59649;SDS011;46162;57.568;25.814;2023-02-18T09:51:46;0.90;;;0.10;;
59649;SDS011;46162;57.568;25.814;2023-02-18T09:54:15;0.57;;;0.10;;
59649;SDS011;46162;57.568;25.814;2023-02-18T09:56:46;0.55;;;0.00;;
59649;SDS011;46162;57.568;25.814;2023-02-18T09:59:23;0.60;;;0.03;;
59649;SDS011;46162;57.568;25.814;2023-02-18T10:01:53;1.63;;;0.03;;
59649;SDS011;46162;57.568;25.814;2023-02-18T10:04:24;0.98;;;0.10;;
59649;SDS011;46162;57.568;25.814;2023-02-18T10:06:56;1.17;;;0.05;;
59649;SDS011;46162;57.568;25.814;2023-02-18T10:09:27;0.52;;;0.00;;
59649;SDS011;46162;57.568;25.814;2023-02-18T10:12:01;1.02;;;0.10;;
59649;SDS011;46162;57.568;25.814;2023-02-18T10:14:41;1.90;;;0.20;;
59649;SDS011;46162;57.568;25.814;2023-02-18T10:17:11;1.25;;;0.10;;
59649;SDS011;46162;57.568;25.814;2023-02-18T10:19:42;1.25;;;0.10;;
59649;SDS011;46162;57.568;25.814;2023-02-18T10:22:13;0.85;;;0.03;;
59649;SDS011;46162;57.568;25.814;2023-02-18T10:24:45;1.30;;;0.08;;
59649;SDS011;46162;57.568;25.814;2023-02-18T10:27:20;0.75;;;0.10;;
59649;SDS011;46162;57.568;25.814;2023-02-18T10:29:54;2.15;;;0.10;;
59649;SDS011;46162;57.568;25.814;2023-02-18T10:32:29;1.08;;;0.13;;
59649;SDS011;46162;57.568;25.814;2023-02-18T10:35:05;0.98;;;0.10;;
59649;SDS011;46162;57.568;25.814;2023-02-18T10:37:48;1.10;;;0.05;;
59649;SDS011;46162;57.568;25.814;2023-02-18T10:40:24;1.52;;;0.20;;
59649;SDS011;46162;57.568;25.814;2023-02-18T10:43:05;1.15;;;0.15;;
59649;SDS011;46162;57.568;25.814;2023-02-18T10:45:41;2.22;;;0.10;;
59649;SDS011;46162;57.568;25.814;2023-02-18T10:48:18;1.75;;;0.20;;
59649;SDS011;46162;57.568;25.814;2023-02-18T10:50:57;1.58;;;0.20;;
59649;SDS011;46162;57.568;25.814;2023-02-18T10:53:30;2.00;;;0.20;;
59649;SDS011;46162;57.568;25.814;2023-02-18T10:56:02;1.42;;;0.20;;
59649;SDS011;46162;57.568;25.814;2023-02-18T10:58:33;2.47;;;0.30;;
59649;SDS011;46162;57.568;25.814;2023-02-18T11:01:05;1.73;;;0.28;;
59649;SDS011;46162;57.568;25.814;2023-02-18T11:03:41;2.08;;;0.40;;
59649;SDS011;46162;57.568;25.814;2023-02-18T11:06:14;1.67;;;0.30;;
59649;SDS011;46162;57.568;25.814;2023-02-18T11:08:47;1.42;;;0.10;;
59649;SDS011;46162;57.568;25.814;2023-02-18T11:11:20;1.98;;;0.20;;
59649;SDS011;46162;57.568;25.814;2023-02-18T11:13:53;2.47;;;0.22;;
59649;SDS011;46162;57.568;25.814;2023-02-18T11:16:34;1.75;;;0.30;;
59649;SDS011;46162;57.568;25.814;2023-02-18T11:19:05;3.30;;;0.50;;
59649;SDS011;46162;57.568;25.814;2023-02-18T11:22:06;3.05;;;0.30;;
59649;SDS011;46162;57.568;25.814;2023-02-18T11:24:39;3.63;;;0.45;;
59649;SDS011;46162;57.568;25.814;2023-02-18T11:27:17;1.77;;;0.20;;
59649;SDS011;46162;57.568;25.814;2023-02-18T11:29:51;4.65;;;0.22;;
59649;SDS011;46162;57.568;25.814;2023-02-18T11:32:26;1.55;;;0.20;;
59649;SDS011;46162;57.568;25.814;2023-02-18T11:34:56;1.80;;;0.20;;
59649;SDS011;46162;57.568;25.814;2023-02-18T11:37:25;1.63;;;0.22;;
59649;SDS011;46162;57.568;25.814;2023-02-18T11:39:54;1.50;;;0.10;;
59649;SDS011;46162;57.568;25.814;2023-02-18T11:42:23;1.38;;;0.10;;
59649;SDS011;46162;57.568;25.814;2023-02-18T11:44:54;1.65;;;0.10;;
59649;SDS011;46162;57.568;25.814;2023-02-18T11:47:27;0.80;;;0.10;;
59649;SDS011;46162;57.568;25.814;2023-02-18T11:50:10;1.00;;;0.10;;
59649;SDS011;46162;57.568;25.814;2023-02-18T11:52:44;0.63;;;0.10;;
59649;SDS011;46162;57.568;25.814;2023-02-18T11:55:15;0.32;;;0.00;;
59649;SDS011;46162;57.568;25.814;2023-02-18T11:57:47;2.20;;;0.10;;
59649;SDS011;46162;57.568;25.814;2023-02-18T12:00:21;1.00;;;0.08;;
59649;SDS011;46162;57.568;25.814;2023-02-18T12:02:52;0.47;;;0.00;;
59649;SDS011;46162;57.568;25.814;2023-02-18T12:05:25;1.00;;;0.10;;
59649;SDS011;46162;57.568;25.814;2023-02-18T12:07:57;1.45;;;0.00;;
59649;SDS011;46162;57.568;25.814;2023-02-18T12:10:30;1.63;;;0.00;;
59649;SDS011;46162;57.568;25.814;2023-02-18T12:13:02;1.58;;;0.00;;
59649;SDS011;46162;57.568;25.814;2023-02-18T12:15:40;0.88;;;0.00;;
59649;SDS011;46162;57.568;25.814;2023-02-18T12:18:26;0.90;;;0.10;;
59649;SDS011;46162;57.568;25.814;2023-02-18T12:23:55;0.50;;;0.00;;
59649;SDS011;46162;57.568;25.814;2023-02-18T12:26:32;1.30;;;0.10;;
59649;SDS011;46162;57.568;25.814;2023-02-18T12:29:13;0.55;;;0.00;;
59649;SDS011;46162;57.568;25.814;2023-02-18T12:32:04;0.50;;;0.10;;
59649;SDS011;46162;57.568;25.814;2023-02-18T12:35:06;0.40;;;0.00;;
59649;SDS011;46162;57.568;25.814;2023-02-18T12:38:02;0.93;;;0.10;;
59649;SDS011;46162;57.568;25.814;2023-02-18T12:40:54;1.95;;;0.00;;
59649;SDS011;46162;57.568;25.814;2023-02-18T12:43:34;0.32;;;0.00;;
59649;SDS011;46162;57.568;25.814;2023-02-18T12:46:20;0.75;;;0.00;;
59649;SDS011;46162;57.568;25.814;2023-02-18T12:49:03;0.95;;;0.10;;
59649;SDS011;46162;57.568;25.814;2023-02-18T12:51:49;0.98;;;0.00;;
59649;SDS011;46162;57.568;25.814;2023-02-18T12:54:46;1.20;;;0.00;;
59649;SDS011;46162;57.568;25.814;2023-02-18T12:57:31;1.27;;;0.00;;
59649;SDS011;46162;57.568;25.814;2023-02-18T13:06:21;1.83;;;0.20;;
59649;SDS011;46162;57.568;25.814;2023-02-18T13:09:05;0.20;;;0.00;;
59649;SDS011;46162;57.568;25.814;2023-02-18T13:11:45;0.20;;;0.00;;
59649;SDS011;46162;57.568;25.814;2023-02-18T13:14:21;0.68;;;0.00;;
59649;SDS011;46162;57.568;25.814;2023-02-18T13:16:52;1.00;;;0.00;;
59649;SDS011;46162;57.568;25.814;2023-02-18T13:19:25;0.43;;;0.00;;
59649;SDS011;46162;57.568;25.814;2023-02-18T13:21:58;0.75;;;0.00;;
59649;SDS011;46162;57.568;25.814;2023-02-18T13:24:32;0.45;;;0.00;;
59649;SDS011;46162;57.568;25.814;2023-02-18T13:27:05;0.28;;;0.00;;
59649;SDS011;46162;57.568;25.814;2023-02-18T13:29:43;0.52;;;0.00;;
59649;SDS011;46162;57.568;25.814;2023-02-18T13:32:21;3.67;;;0.00;;
59649;SDS011;46162;57.568;25.814;2023-02-18T13:34:56;0.75;;;0.00;;
59649;SDS011;46162;57.568;25.814;2023-02-18T13:37:33;0.30;;;0.00;;
59649;SDS011;46162;57.568;25.814;2023-02-18T13:40:18;0.30;;;0.00;;
59649;SDS011;46162;57.568;25.814;2023-02-18T13:42:50;0.55;;;0.00;;
59649;SDS011;46162;57.568;25.814;2023-02-18T13:45:26;0.80;;;0.00;;
59649;SDS011;46162;57.568;25.814;2023-02-18T13:47:57;0.65;;;0.00;;
59649;SDS011;46162;57.568;25.814;2023-02-18T13:50:31;0.65;;;0.05;;
59649;SDS011;46162;57.568;25.814;2023-02-18T13:53:20;0.25;;;0.00;;
59649;SDS011;46162;57.568;25.814;2023-02-18T13:56:04;0.50;;;0.00;;
59649;SDS011;46162;57.568;25.814;2023-02-18T13:58:37;1.60;;;0.00;;
59649;SDS011;46162;57.568;25.814;2023-02-18T14:01:14;0.45;;;0.00;;
59649;SDS011;46162;57.568;25.814;2023-02-18T14:03:52;0.50;;;0.00;;
59649;SDS011;46162;57.568;25.814;2023-02-18T14:06:26;0.90;;;0.10;;
59649;SDS011;46162;57.568;25.814;2023-02-18T14:09:29;1.13;;;0.08;;
59649;SDS011;46162;57.568;25.814;2023-02-18T14:12:23;0.60;;;0.00;;
59649;SDS011;46162;57.568;25.814;2023-02-18T14:14:54;0.45;;;0.00;;
59649;SDS011;46162;57.568;25.814;2023-02-18T14:17:28;0.80;;;0.10;;
59649;SDS011;46162;57.568;25.814;2023-02-18T14:23:10;0.70;;;0.10;;
59649;SDS011;46162;57.568;25.814;2023-02-18T14:25:57;1.33;;;0.00;;
59649;SDS011;46162;57.568;25.814;2023-02-18T14:28:39;1.55;;;0.10;;
59649;SDS011;46162;57.568;25.814;2023-02-18T14:31:20;1.10;;;0.03;;
59649;SDS011;46162;57.568;25.814;2023-02-18T14:37:26;1.20;;;0.10;;
59649;SDS011;46162;57.568;25.814;2023-02-18T14:40:20;1.13;;;0.10;;
59649;SDS011;46162;57.568;25.814;2023-02-18T14:42:59;1.00;;;0.10;;
59649;SDS011;46162;57.568;25.814;2023-02-18T14:45:44;1.50;;;0.10;;
59649;SDS011;46162;57.568;25.814;2023-02-18T14:48:34;1.67;;;0.10;;
59649;SDS011;46162;57.568;25.814;2023-02-18T14:51:36;2.50;;;0.10;;
59649;SDS011;46162;57.568;25.814;2023-02-18T14:54:11;1.98;;;0.10;;
59649;SDS011;46162;57.568;25.814;2023-02-18T14:56:47;1.10;;;0.10;;
59649;SDS011;46162;57.568;25.814;2023-02-18T14:59:21;2.35;;;0.10;;
59649;SDS011;46162;57.568;25.814;2023-02-18T15:01:55;0.93;;;0.00;;
59649;SDS011;46162;57.568;25.814;2023-02-18T15:04:24;1.73;;;0.10;;
59649;SDS011;46162;57.568;25.814;2023-02-18T15:07:00;1.58;;;0.10;;
59649;SDS011;46162;57.568;25.814;2023-02-18T15:09:30;1.45;;;0.10;;
59649;SDS011;46162;57.568;25.814;2023-02-18T15:11:59;1.15;;;0.10;;
59649;SDS011;46162;57.568;25.814;2023-02-18T15:14:32;1.35;;;0.08;;
59649;SDS011;46162;57.568;25.814;2023-02-18T15:17:05;0.85;;;0.05;;
59649;SDS011;46162;57.568;25.814;2023-02-18T15:19:39;1.00;;;0.10;;
59649;SDS011;46162;57.568;25.814;2023-02-18T15:22:14;1.63;;;0.10;;
59649;SDS011;46162;57.568;25.814;2023-02-18T15:24:45;1.42;;;0.10;;
59649;SDS011;46162;57.568;25.814;2023-02-18T15:27:15;1.35;;;0.10;;